createdAt,value
2018-01-14T00:01:20.194Z,24.70
2018-01-14T00:03:47.745Z,25.43
2018-01-14T00:06:16.048Z,24.83
2018-01-14T00:08:44.332Z,25.00
2018-01-14T00:11:12.615Z,26.70
2018-01-14T00:13:40.994Z,21.10
2018-01-14T00:16:09.344Z,24.17
2018-01-14T00:18:37.483Z,26.33
2018-01-14T00:21:05.786Z,24.70
2018-01-14T00:23:33.345Z,24.10
2018-01-14T00:26:01.654Z,26.17
2018-01-14T00:28:29.273Z,23.20
2018-01-14T00:30:57.569Z,25.93
2018-01-14T00:33:25.194Z,25.23
2018-01-14T00:35:52.737Z,28.07
2018-01-14T00:38:21.545Z,25.17
2018-01-14T00:40:50.950Z,28.30
2018-01-14T00:43:19.628Z,32.53
2018-01-14T00:45:50.526Z,25.47
2018-01-14T00:48:20.638Z,24.13
2018-01-14T00:50:49.879Z,23.13
2018-01-14T00:53:19.310Z,25.70
2018-01-14T00:55:48.737Z,28.07
2018-01-14T00:58:16.944Z,27.10
2018-01-14T01:00:45.404Z,28.03
2018-01-14T01:03:15.315Z,25.17
2018-01-14T01:05:46.882Z,25.50
2018-01-14T01:08:15.963Z,23.27
2018-01-14T01:10:45.705Z,28.70
2018-01-14T01:13:19.372Z,26.97
2018-01-14T01:15:47.569Z,25.10
2018-01-14T01:18:15.823Z,22.77
2018-01-14T01:20:43.516Z,23.50
2018-01-14T01:23:12.161Z,24.03
2018-01-14T01:25:42.536Z,22.33
2018-01-14T01:28:13.075Z,22.30
2018-01-14T01:30:42.284Z,27.17
2018-01-14T01:33:10.094Z,23.53
2018-01-14T01:35:38.574Z,22.47
2018-01-14T01:38:06.572Z,29.13
2018-01-14T01:40:34.221Z,22.63
2018-01-14T01:43:01.830Z,27.30
2018-01-14T01:45:30.109Z,25.17
2018-01-14T01:47:58.493Z,26.93
2018-01-14T01:50:26.813Z,25.47
2018-01-14T01:52:54.304Z,21.83
2018-01-14T01:55:21.919Z,20.37
2018-01-14T01:57:49.498Z,22.93
2018-01-14T02:00:17.075Z,22.00
2018-01-14T02:02:45.389Z,24.50
2018-01-14T02:05:12.884Z,21.77
2018-01-14T02:07:40.469Z,24.67
2018-01-14T02:10:08.023Z,22.40
2018-01-14T02:12:36.416Z,23.60
2018-01-14T02:15:04.167Z,23.90
2018-01-14T02:17:31.748Z,20.47
2018-01-14T02:19:59.297Z,22.00
2018-01-14T02:22:26.863Z,19.27
2018-01-14T02:24:55.309Z,21.40
2018-01-14T02:27:22.984Z,23.73
2018-01-14T02:29:50.514Z,27.23
2018-01-14T02:32:18.231Z,29.83
2018-01-14T02:34:46.713Z,18.33
2018-01-14T02:37:14.271Z,28.40
2018-01-14T02:39:41.806Z,19.97
2018-01-14T02:42:10.130Z,22.07
2018-01-14T02:44:37.680Z,21.43
2018-01-14T02:47:05.292Z,24.50
2018-01-14T02:49:32.859Z,22.33
2018-01-14T02:52:00.435Z,24.10
2018-01-14T02:54:27.937Z,20.60
2018-01-14T02:56:56.242Z,20.47
2018-01-14T02:59:24.530Z,19.23
2018-01-14T03:01:52.913Z,21.83
2018-01-14T03:04:20.431Z,18.57
2018-01-14T03:06:47.961Z,19.57
2018-01-14T03:09:16.274Z,21.47
2018-01-14T03:11:43.825Z,20.00
2018-01-14T03:14:12.240Z,19.27
2018-01-14T03:16:39.854Z,19.83
2018-01-14T03:19:07.894Z,18.20
2018-01-14T03:21:35.521Z,21.30
2018-01-14T04:46:00.351Z,20.15
2018-01-14T04:48:27.878Z,18.90
2018-01-14T04:50:55.549Z,20.97
2018-01-14T04:53:23.992Z,21.03
2018-01-14T04:55:51.511Z,19.00
2018-01-14T04:58:20.220Z,19.57
2018-01-14T05:00:48.253Z,21.20
2018-01-14T05:03:16.883Z,19.23
2018-01-14T05:05:45.588Z,22.63
2018-01-14T05:08:13.540Z,18.70
2018-01-14T05:10:42.045Z,20.70
2018-01-14T05:13:11.028Z,19.27
2018-01-14T05:15:39.949Z,24.45
2018-01-14T05:18:09.243Z,18.53
2018-01-14T05:20:37.647Z,18.63
2018-01-14T05:23:06.357Z,18.17
2018-01-14T05:25:34.653Z,18.43
2018-01-14T05:28:02.297Z,20.90
2018-01-14T05:30:30.033Z,19.93
2018-01-14T05:32:57.549Z,24.57
2018-01-14T05:35:25.161Z,21.40
2018-01-14T05:37:53.445Z,19.00
2018-01-14T05:40:22.178Z,22.00
2018-01-14T05:42:49.783Z,24.60
2018-01-14T05:45:18.376Z,22.92
2018-01-14T05:47:46.076Z,19.58
2018-01-14T05:50:14.207Z,23.37
2018-01-14T05:52:41.973Z,23.20
2018-01-14T05:55:10.597Z,21.73
2018-01-14T05:57:38.499Z,21.97
2018-01-14T06:00:06.742Z,21.13
2018-01-14T06:02:34.470Z,20.73
2018-01-14T06:05:02.862Z,23.97
2018-01-14T06:07:30.499Z,27.37
2018-01-14T06:09:58.126Z,26.57
2018-01-14T06:12:25.632Z,20.87
2018-01-14T06:14:53.260Z,21.60
2018-01-14T06:17:21.569Z,23.70
2018-01-14T06:19:49.093Z,23.27
2018-01-14T06:22:16.632Z,20.93
2018-01-14T06:24:44.305Z,22.37
2018-01-14T06:27:11.894Z,21.30
2018-01-14T06:29:39.543Z,23.73
2018-01-14T06:32:07.103Z,24.20
2018-01-14T06:34:34.653Z,25.23
2018-01-14T06:37:02.199Z,21.57
2018-01-14T06:39:30.684Z,23.50
2018-01-14T06:41:58.199Z,28.27
2018-01-14T06:44:26.489Z,23.17
2018-01-14T06:46:54.036Z,23.77
2018-01-14T06:49:21.557Z,24.42
2018-01-14T06:51:49.067Z,25.55
2018-01-14T06:54:17.358Z,23.17
2018-01-14T06:56:45.637Z,21.60
2018-01-14T06:59:13.943Z,23.95
2018-01-14T07:01:41.455Z,25.40
2018-01-14T07:04:09.068Z,25.10
2018-01-14T07:06:36.718Z,30.23
2018-01-14T07:09:04.294Z,25.33
2018-01-14T07:11:31.789Z,28.83
2018-01-14T07:13:59.376Z,23.00
2018-01-14T07:16:27.669Z,26.37
2018-01-14T07:18:56.051Z,29.55
2018-01-14T07:21:23.749Z,21.33
2018-01-14T07:23:51.416Z,29.67
2018-01-14T07:26:19.745Z,23.35
2018-01-14T07:28:47.316Z,24.65
2018-01-14T07:31:14.944Z,21.55
2018-01-14T07:33:43.269Z,26.40
2018-01-14T07:36:10.860Z,24.77
2018-01-14T07:38:38.493Z,26.43
2018-01-14T07:41:06.050Z,26.67
2018-01-14T07:43:33.628Z,27.33
2018-01-14T07:46:02.143Z,23.40
2018-01-14T07:48:29.758Z,24.40
2018-01-14T07:50:57.416Z,24.65
2018-01-14T07:53:24.939Z,26.40
2018-01-14T07:55:52.544Z,25.83
2018-01-14T07:58:20.114Z,24.40
2018-01-14T08:00:48.842Z,25.85
2018-01-14T08:03:41.714Z,25.65
2018-01-14T08:06:14.946Z,22.75
2018-01-14T08:08:45.646Z,26.25
2018-01-14T08:11:16.429Z,25.20
2018-01-14T08:13:45.417Z,30.20
2018-01-14T08:16:17.603Z,24.87
2018-01-14T08:18:48.254Z,27.07
2018-01-14T08:23:54.196Z,27.17
2018-01-14T08:28:56.916Z,23.97
2018-01-14T08:34:05.628Z,25.13
2018-01-14T08:36:41.327Z,21.70
2018-01-14T08:39:13.168Z,20.83
2018-01-14T08:41:42.365Z,20.90
2018-01-14T08:44:11.947Z,25.20
2018-01-14T08:46:41.245Z,21.70
2018-01-14T08:49:11.524Z,35.10
2018-01-14T08:51:42.110Z,20.80
2018-01-14T08:54:11.482Z,22.77
2018-01-14T08:56:39.499Z,23.73
2018-01-14T08:59:08.980Z,24.00
2018-01-14T09:01:42.908Z,22.47
2018-01-14T09:04:11.620Z,22.07
2018-01-14T09:06:42.216Z,22.03
2018-01-14T09:09:09.788Z,24.20
2018-01-14T09:11:42.900Z,28.60
2018-01-14T09:14:15.723Z,23.85
2018-01-14T09:16:44.213Z,20.60
2018-01-14T09:19:19.849Z,17.90
2018-01-14T09:22:01.215Z,19.73
2018-01-14T09:24:31.034Z,23.90
2018-01-14T09:27:06.487Z,21.93
2018-01-14T09:29:36.963Z,26.17
2018-01-14T09:32:11.330Z,21.87
2018-01-14T09:34:48.017Z,20.97
2018-01-14T09:37:24.081Z,19.47
2018-01-14T09:39:52.339Z,19.73
2018-01-14T09:42:19.920Z,21.23
2018-01-14T09:44:47.424Z,20.20
2018-01-14T09:47:15.991Z,20.17
2018-01-14T09:49:44.657Z,20.37
2018-01-14T09:52:12.310Z,18.67
2018-01-14T09:54:40.624Z,19.57
2018-01-14T09:57:08.191Z,19.80
2018-01-14T09:59:36.512Z,24.23
2018-01-14T10:02:05.747Z,15.77
2018-01-14T10:04:34.900Z,16.87
2018-01-14T10:07:02.603Z,19.20
2018-01-14T10:09:30.163Z,23.90
2018-01-14T10:11:57.731Z,24.20
2018-01-14T10:14:25.291Z,19.40
2018-01-14T10:16:53.078Z,17.93
2018-01-14T10:19:20.653Z,20.90
2018-01-14T10:21:48.282Z,19.23
2018-01-14T10:24:16.583Z,16.50
2018-01-14T10:26:44.970Z,17.63
2018-01-14T10:29:13.282Z,17.97
2018-01-14T10:31:41.535Z,17.77
2018-01-14T10:34:10.690Z,15.87
2018-01-14T10:36:39.938Z,19.63
2018-01-14T10:39:10.290Z,16.00
2018-01-14T10:41:38.000Z,17.97
2018-01-14T10:44:15.895Z,14.60
2018-01-14T10:46:45.199Z,16.63
2018-01-14T10:49:14.411Z,15.37
2018-01-14T10:51:42.747Z,15.30
2018-01-14T10:54:11.425Z,15.23
2018-01-14T10:56:38.956Z,16.97
2018-01-14T10:59:06.596Z,16.97
2018-01-14T11:01:34.182Z,15.70
2018-01-14T11:04:01.709Z,12.87
2018-01-14T11:06:29.869Z,12.50
2018-01-14T11:08:58.186Z,14.70
2018-01-14T11:11:25.727Z,15.10
2018-01-14T11:13:54.946Z,17.13
2018-01-14T11:16:23.244Z,16.40
2018-01-14T11:18:50.758Z,14.13
2018-01-14T11:21:19.275Z,14.07
2018-01-14T11:23:46.902Z,17.10
2018-01-14T11:26:14.479Z,16.17
2018-01-14T11:28:42.049Z,15.97
2018-01-14T11:31:10.485Z,14.57
2018-01-14T11:33:38.010Z,14.87
2018-01-14T11:36:06.482Z,13.87
2018-01-14T11:38:34.170Z,17.43
2018-01-14T11:41:05.117Z,14.47
2018-01-14T11:43:35.874Z,17.60
2018-01-14T11:46:03.899Z,15.40
2018-01-14T11:48:31.465Z,17.20
2018-01-14T11:50:59.001Z,15.53
2018-01-14T11:53:28.731Z,14.10
2018-01-14T11:55:56.901Z,20.20
2018-01-14T11:58:25.245Z,14.90
2018-01-14T12:00:52.789Z,15.17
2018-01-14T12:03:20.686Z,18.33
2018-01-14T12:05:49.058Z,16.57
2018-01-14T12:08:18.372Z,14.33
2018-01-14T12:10:46.967Z,13.70
2018-01-14T12:13:14.517Z,20.50
2018-01-14T12:15:42.075Z,16.37
2018-01-14T12:18:09.714Z,17.23
2018-01-14T12:20:38.054Z,16.00
2018-01-14T12:23:05.738Z,15.37
2018-01-14T12:25:33.388Z,14.57
2018-01-14T12:28:00.893Z,19.90
2018-01-14T12:30:28.681Z,20.47
2018-01-14T12:33:08.787Z,15.17
2018-01-14T12:35:36.486Z,15.77
2018-01-14T12:38:03.990Z,18.73
2018-01-14T12:40:31.588Z,20.27
2018-01-14T12:42:59.901Z,15.60
2018-01-14T12:45:27.482Z,19.40
2018-01-14T12:47:55.006Z,17.17
2018-01-14T12:50:22.581Z,19.47
2018-01-14T12:52:50.875Z,18.40
2018-01-14T12:55:19.987Z,17.07
2018-01-14T12:57:48.303Z,16.10
2018-01-14T13:00:15.846Z,21.03
2018-01-14T13:02:46.264Z,18.27
2018-01-14T13:05:13.841Z,20.97
2018-01-14T13:07:41.420Z,19.10
2018-01-14T13:10:09.351Z,15.67
2018-01-14T13:12:36.914Z,14.33
2018-01-14T13:15:04.438Z,16.33
2018-01-14T13:17:32.049Z,20.73
2018-01-14T13:19:59.585Z,16.40
2018-01-14T13:22:27.380Z,16.40
2018-01-14T13:24:55.898Z,25.20
2018-01-14T13:27:23.448Z,20.63
2018-01-14T13:29:51.860Z,19.40
2018-01-14T13:32:19.367Z,30.43
2018-01-14T13:34:46.898Z,18.27
2018-01-14T13:37:14.412Z,21.13
2018-01-14T13:39:42.261Z,19.70
2018-01-14T13:42:16.329Z,16.10
2018-01-14T13:47:49.957Z,18.00
2018-01-14T13:50:17.655Z,21.27
2018-01-14T13:52:45.973Z,23.83
2018-01-14T13:55:13.592Z,20.70
2018-01-14T13:57:41.124Z,19.70
2018-01-14T14:00:08.654Z,31.00
2018-01-14T14:02:36.938Z,19.57
2018-01-14T14:05:04.592Z,19.67
2018-01-14T14:07:32.112Z,19.37
2018-01-14T14:10:00.433Z,18.07
2018-01-14T14:12:30.287Z,20.50
2018-01-14T14:14:58.839Z,20.03
2018-01-14T14:17:27.207Z,23.43
2018-01-14T14:19:55.517Z,19.93
2018-01-14T14:22:23.125Z,20.10
2018-01-14T14:24:50.700Z,18.13
2018-01-14T14:27:18.304Z,20.47
2018-01-14T14:29:46.625Z,17.23
2018-01-14T14:32:14.141Z,17.77
2018-01-14T14:34:41.805Z,22.30
2018-01-14T14:37:09.404Z,21.80
2018-01-14T14:39:37.054Z,19.07
2018-01-14T14:42:05.151Z,21.27
2018-01-14T14:44:32.763Z,18.60
2018-01-14T14:47:00.263Z,20.83
2018-01-14T14:49:27.918Z,17.20
2018-01-14T14:51:55.549Z,20.60
2018-01-14T14:54:23.126Z,18.23
2018-01-14T14:56:50.709Z,20.00
2018-01-14T14:59:19.136Z,18.40
2018-01-14T15:01:46.716Z,17.40
2018-01-14T15:04:14.442Z,21.03
2018-01-14T15:06:41.916Z,20.10
2018-01-14T15:09:10.371Z,19.27
2018-01-14T15:11:37.899Z,18.77
2018-01-14T15:14:05.677Z,20.00
2018-01-14T15:16:33.232Z,19.03
2018-01-14T15:19:00.997Z,17.93
2018-01-14T15:21:28.573Z,18.13
2018-01-14T15:23:56.938Z,18.13
2018-01-14T15:26:24.605Z,22.10
2018-01-14T15:28:52.138Z,23.40
2018-01-14T15:31:19.765Z,21.70
2018-01-14T15:33:47.360Z,28.07
2018-01-14T15:36:15.558Z,23.90
2018-01-14T15:38:43.100Z,27.40
2018-01-14T15:41:10.703Z,22.90
2018-01-14T15:43:38.226Z,29.57
2018-01-14T15:46:05.763Z,23.67
2018-01-14T15:48:33.325Z,34.23
2018-01-14T15:51:00.880Z,35.47
2018-01-14T15:53:29.243Z,61.07
2018-01-14T15:55:56.773Z,49.77
2018-01-14T15:58:24.429Z,24.90
2018-01-14T16:00:51.974Z,22.13
2018-01-14T16:03:20.306Z,28.17
2018-01-14T16:05:47.837Z,26.97
2018-01-14T16:08:16.174Z,22.37
2018-01-14T16:10:43.824Z,23.20
2018-01-14T16:13:11.370Z,22.70
2018-01-14T16:15:39.355Z,25.97
2018-01-14T16:18:07.687Z,22.93
2018-01-14T16:20:35.236Z,25.07
2018-01-14T16:23:02.767Z,26.27
2018-01-14T16:25:30.351Z,23.37
2018-01-14T16:27:58.724Z,25.17
2018-01-14T16:30:26.408Z,23.53
2018-01-14T16:32:53.911Z,23.03
2018-01-14T16:35:21.651Z,22.57
2018-01-14T16:37:49.986Z,24.67
2018-01-14T16:40:17.530Z,27.90
2018-01-14T16:42:45.828Z,25.60
2018-01-14T16:45:13.369Z,23.10
2018-01-14T16:47:40.900Z,21.93
2018-01-14T16:50:08.588Z,25.77
2018-01-14T16:52:36.527Z,32.07
2018-01-14T16:55:04.073Z,27.67
2018-01-14T16:57:32.370Z,29.20
2018-01-14T17:00:00.669Z,24.87
2018-01-14T17:02:28.352Z,26.98
2018-01-14T17:04:55.866Z,24.63
2018-01-14T17:07:23.411Z,24.17
2018-01-14T17:09:50.925Z,23.77
2018-01-14T17:12:18.477Z,29.90
2018-01-14T17:14:46.046Z,28.07
2018-01-14T17:17:13.692Z,27.03
2018-01-14T17:19:41.465Z,25.33
2018-01-14T17:22:09.072Z,24.47
2018-01-14T17:24:36.602Z,26.57
2018-01-14T17:27:04.217Z,26.80
2018-01-14T17:29:31.772Z,26.93
2018-01-14T17:31:59.436Z,28.77
2018-01-14T17:34:27.110Z,26.20
2018-01-14T17:36:54.740Z,27.30
2018-01-14T17:39:23.053Z,26.57
2018-01-14T17:41:50.736Z,31.50
2018-01-14T17:44:18.420Z,26.83
2018-01-14T17:46:45.974Z,25.93
2018-01-14T17:49:13.532Z,28.03
2018-01-14T17:51:41.915Z,25.50
2018-01-14T17:54:10.282Z,26.77
2018-01-14T17:56:37.888Z,31.03
2018-01-14T17:59:05.452Z,24.73
2018-01-14T18:01:33.750Z,24.40
2018-01-14T18:04:02.076Z,26.43
2018-01-14T18:06:29.638Z,24.27
2018-01-14T18:08:57.274Z,27.07
2018-01-14T18:11:25.596Z,32.53
2018-01-14T18:13:53.356Z,27.50
2018-01-14T18:16:20.908Z,25.90
2018-01-14T18:18:49.192Z,25.67
2018-01-14T18:21:17.531Z,27.10
2018-01-14T18:23:45.147Z,27.03
2018-01-14T18:26:12.737Z,27.23
2018-01-14T18:28:41.146Z,27.35
2018-01-14T18:31:08.772Z,27.50
2018-01-14T18:33:36.294Z,26.37
2018-01-14T18:36:03.844Z,24.60
2018-01-14T18:38:31.374Z,27.42
2018-01-14T18:40:58.950Z,25.00
2018-01-14T18:43:26.488Z,26.57
2018-01-14T18:46:04.825Z,28.33
2018-01-14T18:48:32.488Z,29.63
2018-01-14T18:51:00.092Z,27.73
2018-01-14T18:53:27.730Z,25.90
2018-01-14T18:55:55.333Z,26.60
2018-01-14T18:58:22.895Z,26.05
2018-01-14T19:00:51.291Z,25.92
2018-01-14T19:03:18.959Z,25.17
2018-01-14T19:05:46.620Z,31.65
2018-01-14T19:08:14.158Z,28.48
2018-01-14T19:10:41.760Z,27.55
2018-01-14T19:13:09.291Z,30.40
2018-01-14T19:15:37.017Z,26.33
2018-01-14T19:18:04.565Z,24.77
2018-01-14T19:20:32.110Z,25.88
2018-01-14T19:23:00.397Z,23.05
2018-01-14T19:25:29.444Z,24.10
2018-01-14T19:27:56.992Z,24.48
2018-01-14T19:30:24.652Z,26.17
2018-01-14T19:32:52.978Z,24.37
2018-01-14T19:35:20.619Z,27.92
2018-01-14T19:37:48.897Z,27.03
2018-01-14T19:40:17.921Z,28.38
2018-01-14T19:42:46.232Z,27.15
2018-01-14T19:45:13.934Z,26.45
2018-01-14T19:47:41.678Z,26.80
2018-01-14T19:50:09.444Z,26.00
2018-01-14T19:52:37.111Z,31.62
2018-01-14T19:55:04.815Z,23.50
2018-01-14T19:57:32.453Z,24.87
2018-01-14T20:00:00.748Z,21.85
2018-01-14T20:02:28.342Z,24.95
2018-01-14T20:04:55.984Z,25.70
2018-01-14T20:07:24.322Z,27.75
2018-01-14T20:09:51.944Z,26.80
2018-01-14T20:12:19.567Z,21.48
2018-01-14T20:14:47.266Z,29.10
2018-01-14T20:17:14.847Z,26.92
2018-01-14T20:19:43.249Z,27.13
2018-01-14T20:22:11.670Z,26.02
2018-01-14T20:24:39.244Z,27.95
2018-01-14T20:27:06.964Z,28.33
2018-01-14T20:29:34.591Z,26.23
2018-01-14T20:32:02.265Z,25.95
2018-01-14T20:34:29.915Z,27.52
2018-01-14T20:36:58.216Z,24.33
2018-01-14T20:39:25.995Z,27.50
2018-01-14T20:41:54.099Z,26.30
2018-01-14T20:44:27.389Z,23.45
2018-01-14T20:46:55.071Z,26.85
2018-01-14T20:49:22.742Z,26.58
2018-01-14T20:51:50.500Z,29.15
2018-01-14T20:54:18.221Z,26.70
2018-01-14T20:56:45.867Z,30.37
2018-01-14T20:59:13.429Z,24.75
2018-01-14T21:01:41.104Z,26.33
2018-01-14T21:04:09.427Z,28.67
2018-01-14T21:06:36.959Z,26.00
2018-01-14T21:09:04.555Z,26.75
2018-01-14T21:11:32.212Z,25.05
2018-01-14T21:13:59.802Z,28.65
2018-01-14T21:16:27.356Z,31.77
2018-01-14T21:18:55.034Z,31.20
2018-01-14T21:21:22.632Z,29.65
2018-01-14T21:23:50.260Z,25.80
2018-01-14T21:26:18.568Z,30.20
2018-01-14T21:28:46.374Z,32.25
2018-01-14T21:31:14.806Z,30.00
2018-01-14T21:33:42.520Z,28.40
2018-01-14T21:36:11.012Z,28.27
2018-01-14T21:38:38.884Z,24.33
2018-01-14T21:41:06.431Z,24.40
2018-01-14T21:43:34.831Z,23.57
2018-01-14T21:46:03.109Z,28.20
2018-01-14T21:48:31.643Z,28.43
2018-01-14T21:50:59.346Z,24.93
2018-01-14T21:53:26.946Z,29.00
2018-01-14T21:55:55.276Z,26.30
2018-01-14T21:58:22.889Z,32.30
2018-01-14T22:00:50.631Z,25.73
2018-01-14T22:03:18.306Z,26.83
2018-01-14T22:05:45.835Z,27.43
2018-01-14T22:08:14.272Z,28.45
2018-01-14T22:10:41.839Z,30.15
2018-01-14T22:13:09.437Z,24.52
2018-01-14T22:15:37.032Z,27.20
2018-01-14T22:18:05.369Z,25.25
2018-01-14T22:20:33.166Z,26.30
2018-01-14T22:23:00.724Z,30.17
2018-01-14T22:25:28.338Z,29.75
2018-01-14T22:27:55.886Z,26.55
2018-01-14T22:30:23.511Z,36.88
2018-01-14T22:32:51.194Z,30.85
2018-01-14T22:35:18.767Z,31.10
2018-01-14T22:37:46.362Z,26.48
2018-01-14T22:40:13.899Z,27.67
2018-01-14T22:42:41.463Z,29.05
2018-01-14T22:45:09.361Z,27.08
2018-01-14T22:47:37.009Z,28.42
2018-01-14T22:50:04.707Z,29.12
2018-01-14T22:52:32.233Z,28.60
2018-01-14T22:54:59.773Z,32.13
2018-01-14T22:57:28.115Z,27.33
2018-01-14T22:59:55.678Z,31.73
2018-01-14T23:02:23.249Z,27.42
2018-01-14T23:04:50.802Z,31.37
2018-01-14T23:07:18.343Z,34.33
2018-01-14T23:09:46.723Z,31.15
2018-01-14T23:12:15.145Z,28.65
2018-01-14T23:17:41.509Z,31.80
2018-01-14T23:20:09.801Z,30.15
2018-01-14T23:22:37.423Z,30.87
2018-01-14T23:25:04.945Z,31.77
2018-01-14T23:27:32.483Z,30.97
2018-01-14T23:30:00.031Z,32.60
2018-01-14T23:32:28.522Z,26.77
2018-01-14T23:34:56.042Z,31.20
2018-01-14T23:37:24.350Z,35.08
2018-01-14T23:39:52.028Z,31.37
2018-01-14T23:42:19.563Z,30.50
2018-01-14T23:44:47.836Z,33.53
2018-01-14T23:47:15.366Z,34.65
2018-01-14T23:49:42.900Z,32.70
2018-01-14T23:52:11.215Z,30.70
2018-01-14T23:54:38.740Z,30.57
2018-01-14T23:57:06.282Z,35.37
2018-01-14T23:59:33.801Z,32.77
